Time;durP1;ratioP1;P1;durP2;ratioP2;P2;SDS_P1;SDS_P2;PMS_P1;PMS_P2;Temp;Humidity;BMP_temperature;BMP_pressure;BME280_temperature;BME280_humidity;BME280_pressure;Samples;Min_cycle;Max_cycle;Signal;HPM_P1;HPM_P2
2023/04/11 00:01:45;;;;;;;28.52;6.82;;;;;;;8.88;100.00;100866.22;5054338;28;20075;-74
2023/04/11 00:04:11;;;;;;;21.35;5.97;;;;;;;8.82;100.00;100864.78;5054102;28;20443;-75
2023/04/11 00:06:36;;;;;;;25.77;6.22;;;;;;;8.71;100.00;100874.84;5053838;28;20039;-74
2023/04/11 00:09:02;;;;;;;19.80;7.05;;;;;;;8.64;100.00;100860.63;5054197;28;20047;-74
2023/04/11 00:11:27;;;;;;;20.13;6.45;;;;;;;8.67;100.00;100885.41;5053913;28;20028;-74
2023/04/11 00:13:56;;;;;;;23.35;6.60;;;;;;;8.59;100.00;100870.38;5069272;28;20389;-73
2023/04/11 00:16:23;;;;;;;23.45;6.53;;;;;;;8.59;100.00;100878.91;5053863;28;20485;-74
2023/04/11 00:18:49;;;;;;;27.65;6.78;;;;;;;8.61;100.00;100881.41;5054070;28;20017;-74
2023/04/11 00:21:14;;;;;;;26.60;7.55;;;;;;;8.57;100.00;100880.75;5053630;28;20035;-74
2023/04/11 00:23:39;;;;;;;28.00;7.15;;;;;;;8.49;100.00;100877.75;5053815;28;20025;-75
2023/04/11 00:26:06;;;;;;;30.55;6.60;;;;;;;8.53;100.00;100892.09;5053523;28;20123;-77
2023/04/11 00:28:31;;;;;;;29.13;8.13;;;;;;;8.39;100.00;100883.47;5053415;28;20044;-72
2023/04/11 00:30:57;;;;;;;27.73;6.35;;;;;;;8.36;100.00;100887.06;5053529;28;20429;-74
2023/04/11 00:33:22;;;;;;;23.90;5.85;;;;;;;8.26;100.00;100894.38;5053630;28;20378;-73
2023/04/11 00:35:48;;;;;;;24.80;5.90;;;;;;;8.07;100.00;100874.84;5053379;28;20035;-75
2023/04/11 00:38:13;;;;;;;26.45;6.10;;;;;;;8.02;100.00;100885.34;5053416;28;20454;-73
2023/04/11 00:40:39;;;;;;;27.92;7.05;;;;;;;8.04;100.00;100902.34;5053408;28;20033;-73
2023/04/11 00:43:04;;;;;;;28.17;7.18;;;;;;;7.94;100.00;100895.19;5053225;28;20025;-74
2023/04/11 00:45:30;;;;;;;29.20;6.30;;;;;;;7.96;100.00;100912.22;5053489;28;20036;-74
2023/04/11 00:47:55;;;;;;;28.25;6.93;;;;;;;7.95;100.00;100907.13;5052986;28;20120;-75
2023/04/11 00:50:23;;;;;;;30.38;8.23;;;;;;;7.84;100.00;100892.25;5068597;28;20029;-74
2023/04/11 00:52:50;;;;;;;29.63;7.38;;;;;;;7.96;100.00;100909.66;5053262;28;20036;-74
2023/04/11 00:55:16;;;;;;;25.40;7.70;;;;;;;7.86;100.00;100880.16;5068647;28;20025;-73
2023/04/11 00:57:43;;;;;;;28.25;6.82;;;;;;;7.96;100.00;100898.50;5052855;28;20045;-74
2023/04/11 01:00:10;;;;;;;24.27;7.55;;;;;;;7.91;100.00;100890.22;5052664;28;20044;-75
2023/04/11 01:02:41;;;;;;;28.88;7.30;;;;;;;7.92;100.00;100890.13;5052604;28;20036;-73
2023/04/11 01:05:17;;;;;;;27.65;7.53;;;;;;;8.01;100.00;100899.94;5052919;28;20399;-73
2023/04/11 01:07:48;;;;;;;28.75;7.63;;;;;;;7.94;100.00;100883.16;5052904;28;20462;-74
2023/04/11 01:10:15;;;;;;;29.23;7.88;;;;;;;7.87;100.00;100878.44;5052914;28;20064;-74
2023/04/11 01:12:42;;;;;;;36.35;8.13;;;;;;;7.96;100.00;100901.94;5052871;28;20017;-73
2023/04/11 01:15:08;;;;;;;28.27;8.02;;;;;;;7.77;100.00;100865.22;5053054;28;20028;-75
2023/04/11 01:17:34;;;;;;;30.73;7.60;;;;;;;7.88;100.00;100880.94;5052740;28;20013;-74
2023/04/11 01:19:59;;;;;;;27.85;6.90;;;;;;;7.93;100.00;100890.97;5052763;28;20470;-74
2023/04/11 01:22:26;;;;;;;28.70;7.15;;;;;;;7.78;100.00;100869.44;5052722;28;20502;-76
2023/04/11 01:24:55;;;;;;;29.02;6.20;;;;;;;7.83;100.00;100879.47;5052835;28;20025;-74
2023/04/11 01:27:20;;;;;;;24.48;7.00;;;;;;;7.94;100.00;100901.16;5052669;28;20033;-74
2023/04/11 01:29:46;;;;;;;28.52;7.60;;;;;;;7.95;100.00;100902.81;5068037;28;20021;-74
2023/04/11 01:32:11;;;;;;;31.48;7.15;;;;;;;7.86;100.00;100890.44;5052498;28;20027;-74
2023/04/11 01:34:40;;;;;;;30.83;7.13;;;;;;;7.83;100.00;100893.16;5052660;28;20021;-73
2023/04/11 01:37:06;;;;;;;28.05;7.05;;;;;;;7.80;100.00;100902.78;5052450;28;20021;-74
2023/04/11 01:39:31;;;;;;;30.38;7.35;;;;;;;7.64;100.00;100888.13;5052474;28;20032;-74
2023/04/11 01:41:58;;;;;;;28.05;6.43;;;;;;;7.66;100.00;100906.03;5052506;28;20053;-74
2023/04/11 01:44:25;;;;;;;28.20;6.13;;;;;;;7.60;100.00;100908.91;5052509;28;20025;-74
2023/04/11 01:46:50;;;;;;;29.85;7.20;;;;;;;7.43;100.00;100897.72;5052404;28;20474;-73
2023/04/11 01:49:17;;;;;;;31.92;5.65;;;;;;;7.39;100.00;100901.34;5052496;28;20033;-73
2023/04/11 01:51:43;;;;;;;27.45;6.20;;;;;;;7.33;100.00;100898.25;5067794;28;20057;-74
2023/04/11 01:54:09;;;;;;;27.45;6.32;;;;;;;7.40;100.00;100908.16;5052361;28;20118;-73
2023/04/11 01:56:34;;;;;;;24.60;6.00;;;;;;;7.52;100.00;100924.69;5052138;28;20048;-73
2023/04/11 01:59:00;;;;;;;31.08;7.00;;;;;;;7.53;100.00;100922.97;5052373;28;20033;-74
2023/04/11 02:01:26;;;;;;;28.23;6.65;;;;;;;7.53;100.00;100928.94;5052277;28;20215;-74
2023/04/11 02:03:51;;;;;;;24.70;6.38;;;;;;;7.53;100.00;100934.06;5052479;28;20057;-75
2023/04/11 02:06:16;;;;;;;28.73;7.57;;;;;;;7.40;100.00;100908.16;5051971;28;20470;-75
2023/04/11 02:08:42;;;;;;;26.17;6.22;;;;;;;7.56;100.00;100943.38;5052143;28;20112;-73
2023/04/11 02:11:08;;;;;;;26.08;5.82;;;;;;;7.47;100.00;100916.38;5053263;28;20048;-73
2023/04/11 02:13:34;;;;;;;28.10;6.25;;;;;;;7.63;100.00;100944.75;5056084;28;20029;-73
2023/04/11 02:16:13;;;;;;;30.77;6.38;;;;;;;7.52;100.00;100931.59;5056421;28;20581;-74
2023/04/11 02:18:39;;;;;;;30.70;6.68;;;;;;;7.46;100.00;100930.97;5056218;28;20485;-72
2023/04/11 02:21:04;;;;;;;26.85;7.32;;;;;;;7.51;100.00;100940.19;5055990;28;20059;-73
2023/04/11 02:23:30;;;;;;;30.77;6.60;;;;;;;7.53;100.00;100933.25;5056045;28;20021;-74
2023/04/11 02:25:55;;;;;;;29.13;5.90;;;;;;;7.44;100.00;100919.09;5055673;28;20021;-74
2023/04/11 02:28:21;;;;;;;26.35;6.45;;;;;;;7.55;100.00;100937.38;5055985;28;20032;-74
2023/04/11 02:30:47;;;;;;;28.63;5.72;;;;;;;7.52;100.00;100945.25;5055913;28;20074;-74
2023/04/11 02:33:13;;;;;;;26.30;6.38;;;;;;;7.43;100.00;100933.69;5055861;28;20354;-73
2023/04/11 02:35:38;;;;;;;20.17;4.95;;;;;;;7.19;100.00;100901.47;5055968;28;20029;-74
2023/04/11 02:38:03;;;;;;;23.55;6.10;;;;;;;7.31;100.00;100934.28;5055702;28;20017;-75
2023/04/11 02:40:28;;;;;;;29.00;5.15;;;;;;;7.44;100.00;100942.22;5055616;28;20067;-74
2023/04/11 02:42:54;;;;;;;23.05;6.00;;;;;;;7.43;100.00;100945.69;5055675;28;20056;-74
2023/04/11 02:45:19;;;;;;;24.75;6.40;;;;;;;7.29;100.00;100935.25;5055688;28;20057;-75
2023/04/11 02:47:45;;;;;;;25.17;5.10;;;;;;;7.31;100.00;100944.56;5054063;28;20048;-74
2023/04/11 02:50:10;;;;;;;25.83;6.00;;;;;;;7.31;100.00;100954.00;5055629;28;20029;-77
2023/04/11 02:52:38;;;;;;;22.58;4.90;;;;;;;7.26;100.00;100954.19;5055323;28;20072;-74
2023/04/11 02:55:03;;;;;;;27.00;5.60;;;;;;;7.11;100.00;100948.06;5055220;28;20025;-77
2023/04/11 02:57:29;;;;;;;21.88;5.10;;;;;;;7.03;100.00;100936.47;5055047;28;20045;-74
2023/04/11 02:59:54;;;;;;;21.10;4.47;;;;;;;7.02;100.00;100951.06;5055583;28;20025;-74
2023/04/11 03:02:22;;;;;;;22.77;4.60;;;;;;;6.86;100.00;100935.50;5055301;28;20029;-74
2023/04/11 03:04:47;;;;;;;25.90;4.10;;;;;;;6.99;100.00;100964.03;5055222;28;20024;-75
2023/04/11 03:07:12;;;;;;;21.13;4.30;;;;;;;6.91;100.00;100958.41;5054950;28;20041;-75
2023/04/11 03:09:38;;;;;;;24.75;4.47;;;;;;;6.79;100.00;100939.28;5054962;28;20025;-76
2023/04/11 03:12:03;;;;;;;18.63;4.30;;;;;;;6.89;100.00;100971.31;5070380;28;20040;-74
2023/04/11 03:14:29;;;;;;;17.42;4.30;;;;;;;6.72;100.00;100948.16;5055229;28;20147;-75
2023/04/11 03:16:54;;;;;;;18.23;3.30;;;;;;;6.86;100.00;100971.44;5055214;28;20036;-73
2023/04/11 03:19:19;;;;;;;16.08;3.17;;;;;;;6.90;100.00;100977.28;5055027;28;20135;-74
2023/04/11 03:21:45;;;;;;;23.75;5.05;;;;;;;6.89;100.00;100960.22;5054518;28;20047;-74
2023/04/11 03:24:12;;;;;;;16.75;3.40;;;;;;;7.03;100.00;100978.38;5054814;28;20033;-74
2023/04/11 03:26:37;;;;;;;16.10;3.67;;;;;;;7.10;100.00;100978.94;5054841;28;20028;-74
2023/04/11 03:29:02;;;;;;;21.33;4.03;;;;;;;7.17;100.00;100991.41;5054667;28;20025;-73
2023/04/11 03:31:29;;;;;;;22.88;4.50;;;;;;;7.25;100.00;100991.06;5055012;28;20021;-75
2023/04/11 03:33:55;;;;;;;23.10;4.28;;;;;;;7.18;100.00;100971.72;5055008;28;20493;-77
2023/04/11 03:36:21;;;;;;;21.52;4.38;;;;;;;7.34;100.00;100995.78;5054606;28;20059;-75
2023/04/11 03:38:47;;;;;;;19.48;3.53;;;;;;;7.28;100.00;100982.41;5054609;28;20087;-73
2023/04/11 03:41:12;;;;;;;24.73;3.30;;;;;;;7.29;100.00;100989.22;5054545;28;20410;-74
2023/04/11 03:43:38;;;;;;;12.98;3.05;;;;;;;7.45;100.00;101000.41;5069775;28;20025;-71
2023/04/11 03:46:03;;;;;;;13.25;3.00;;;;;;;7.41;100.00;100976.59;5054596;28;20470;-74
2023/04/11 03:48:29;;;;;;;19.50;4.20;;;;;;;7.38;100.00;100983.63;5054486;28;20032;-74
2023/04/11 03:50:55;;;;;;;19.90;5.10;;;;;;;7.39;100.00;100988.69;5054352;28;20087;-74
2023/04/11 03:53:21;;;;;;;15.70;3.28;;;;;;;7.45;100.00;100995.28;5054067;28;20124;-74
2023/04/11 03:55:47;;;;;;;14.10;3.78;;;;;;;7.31;100.00;100977.13;5054126;28;20041;-73
2023/04/11 03:58:13;;;;;;;14.60;3.17;;;;;;;7.49;100.00;101007.09;5054258;28;20417;-74
2023/04/11 04:00:39;;;;;;;13.70;2.38;;;;;;;7.39;100.00;100995.56;5054115;28;20025;-74
2023/04/11 04:03:05;;;;;;;16.85;2.80;;;;;;;7.49;100.00;101014.78;5054160;28;20055;-73
2023/04/11 04:05:31;;;;;;;13.43;2.60;;;;;;;7.53;100.00;101024.00;5054068;28;20018;-73
2023/04/11 04:07:56;;;;;;;16.98;3.03;;;;;;;7.52;100.00;101013.81;5053865;28;20039;-73
2023/04/11 04:10:21;;;;;;;16.00;2.90;;;;;;;7.40;100.00;101000.63;5054345;28;20028;-74
2023/04/11 04:12:47;;;;;;;18.35;3.20;;;;;;;7.48;100.00;101020.84;5069446;28;20017;-72
2023/04/11 04:15:13;;;;;;;15.30;2.53;;;;;;;7.42;100.00;101021.13;5053887;28;20108;-74
2023/04/11 04:17:40;;;;;;;16.80;3.08;;;;;;;7.31;100.00;101015.66;5054023;28;20078;-73
2023/04/11 04:20:08;;;;;;;15.20;3.25;;;;;;;7.25;100.00;101018.50;5054030;28;20052;-74
2023/04/11 04:22:33;;;;;;;15.25;2.67;;;;;;;7.06;100.00;101014.19;5053610;28;20029;-77
2023/04/11 04:24:58;;;;;;;14.85;3.20;;;;;;;7.00;100.00;101017.06;5053773;28;20025;-73
2023/04/11 04:27:24;;;;;;;18.08;3.53;;;;;;;7.09;100.00;101029.47;5053545;28;20056;-72
2023/04/11 04:29:51;;;;;;;15.02;3.00;;;;;;;7.08;100.00;101029.53;5053667;28;20051;-74
2023/04/11 04:32:21;;;;;;;15.60;2.88;;;;;;;7.00;100.00;101029.06;5053680;28;20025;-73
2023/04/11 04:34:54;;;;;;;14.75;2.72;;;;;;;6.94;100.00;101040.41;5052810;28;20031;-73
2023/04/11 04:37:21;;;;;;;10.65;2.78;;;;;;;6.84;100.00;101031.47;5053386;28;20025;-72
2023/04/11 04:39:54;;;;;;;13.88;3.33;;;;;;;6.79;100.00;101041.94;5053161;28;20037;-73
2023/04/11 04:42:26;;;;;;;11.65;2.42;;;;;;;6.77;100.00;101043.72;5053449;28;20032;-73
2023/04/11 04:44:53;;;;;;;18.70;3.50;;;;;;;6.65;100.00;101039.13;5053325;28;20543;-73
2023/04/11 04:47:24;;;;;;;16.88;3.22;;;;;;;6.60;100.00;101041.06;5053006;28;20478;-74
2023/04/11 04:49:54;;;;;;;14.90;2.63;;;;;;;6.58;100.00;101050.53;5053156;28;20516;-74
2023/04/11 04:52:20;;;;;;;13.93;3.00;;;;;;;6.37;100.00;101023.25;5053058;28;20485;-73
2023/04/11 04:54:45;;;;;;;23.67;3.90;;;;;;;6.36;100.00;101042.09;5053158;28;20275;-73
2023/04/11 04:57:10;;;;;;;16.67;2.90;;;;;;;6.31;100.00;101045.69;5052856;28;20520;-74
2023/04/11 04:59:36;;;;;;;15.13;2.60;;;;;;;6.41;100.00;101069.25;5068348;28;20094;-73
2023/04/11 05:02:02;;;;;;;10.27;2.10;;;;;;;6.44;100.00;101081.09;5051733;28;20032;-73
2023/04/11 05:04:28;;;;;;;13.20;3.30;;;;;;;6.27;100.00;101066.41;5054710;28;20025;-73
2023/04/11 05:06:54;;;;;;;13.65;3.30;;;;;;;6.39;100.00;101083.88;5053038;28;20044;-74
2023/04/11 05:09:19;;;;;;;15.43;3.30;;;;;;;6.49;100.00;101082.59;5052889;28;20017;-73
2023/04/11 05:11:44;;;;;;;16.67;3.13;;;;;;;6.56;100.00;101089.09;5052949;28;20095;-74
2023/04/11 05:14:10;;;;;;;18.63;3.42;;;;;;;6.52;100.00;101089.31;5068130;28;20086;-77
2023/04/11 05:16:38;;;;;;;14.35;3.03;;;;;;;6.48;100.00;101080.06;5052836;28;20033;-75
2023/04/11 05:19:03;;;;;;;14.40;2.47;;;;;;;6.56;100.00;101094.22;5052947;28;20032;-73
2023/04/11 05:21:29;;;;;;;15.23;3.10;;;;;;;6.56;100.00;101099.38;5052979;28;20189;-77
2023/04/11 05:23:54;;;;;;;11.27;2.50;;;;;;;6.55;100.00;101105.41;5052694;28;20474;-73
2023/04/11 05:26:19;;;;;;;16.20;3.25;;;;;;;6.55;100.00;101107.97;5052610;28;20106;-74
2023/04/11 05:28:45;;;;;;;17.08;2.63;;;;;;;6.55;100.00;101102.00;5051331;28;19912;-73
2023/04/11 05:31:11;;;;;;;15.98;3.45;;;;;;;6.56;100.00;101109.63;5052780;28;20068;-73
2023/04/11 05:33:40;;;;;;;14.48;2.55;;;;;;;6.43;100.00;101080.25;5052749;28;20082;-73
2023/04/11 05:36:06;;;;;;;13.43;2.90;;;;;;;6.54;100.00;101103.72;5052631;28;20067;-73
2023/04/11 05:38:32;;;;;;;15.90;2.50;;;;;;;6.64;100.00;101114.44;5052114;28;20122;-73
2023/04/11 05:40:58;;;;;;;14.90;3.22;;;;;;;6.67;100.00;101118.59;5067949;28;20036;-74
2023/04/11 05:43:26;;;;;;;16.58;3.40;;;;;;;6.73;100.00;101126.91;5052512;28;20049;-76
2023/04/11 05:45:51;;;;;;;18.48;3.38;;;;;;;6.80;100.00;101136.00;5052354;28;20025;-74
2023/04/11 05:48:21;;;;;;;23.83;3.40;;;;;;;6.88;100.00;101135.66;5052312;28;20074;-74
2023/04/11 05:50:48;;;;;;;17.83;3.45;;;;;;;7.01;100.00;101141.13;5052369;28;20103;-75
2023/04/11 05:53:13;;;;;;;16.20;3.00;;;;;;;7.21;100.00;101147.97;5052215;28;20148;-75
2023/04/11 05:55:39;;;;;;;16.85;3.30;;;;;;;7.35;100.00;101123.31;5049059;28;20478;-73
2023/04/11 05:58:04;;;;;;;15.55;3.10;;;;;;;7.64;99.40;101142.56;5047786;28;20045;-74
2023/04/11 06:00:31;;;;;;;13.20;2.75;;;;;;;7.59;99.39;101123.13;5052711;28;20040;-73
2023/04/11 06:02:57;;;;;;;11.95;2.75;;;;;;;7.72;97.87;101131.94;5051662;28;20063;-75
2023/04/11 06:05:23;;;;;;;14.40;3.10;;;;;;;7.72;98.13;101150.75;5052950;28;20028;-79
2023/04/11 06:07:49;;;;;;;17.95;3.00;;;;;;;7.82;98.09;101163.19;5052409;28;20095;-76
2023/04/11 06:10:15;;;;;;;20.55;3.53;;;;;;;7.79;98.23;101171.88;5052134;28;20028;-72
2023/04/11 06:12:40;;;;;;;12.93;3.35;;;;;;;7.77;99.04;101176.28;5051994;28;20040;-74
2023/04/11 06:15:08;;;;;;;13.57;3.15;;;;;;;7.67;98.93;101163.00;5052652;28;20029;-72
2023/04/11 06:17:33;;;;;;;13.57;2.85;;;;;;;7.68;98.80;101153.56;5052127;28;20071;-74
2023/04/11 06:19:58;;;;;;;13.07;3.05;;;;;;;8.13;97.94;101172.88;5068128;28;20036;-72
2023/04/11 06:22:24;;;;;;;17.65;3.63;;;;;;;8.43;95.75;101178.34;5052137;28;20029;-72
2023/04/11 06:24:49;;;;;;;16.35;2.95;;;;;;;8.33;95.12;101165.88;5051767;28;20478;-71
2023/04/11 06:27:14;;;;;;;15.18;2.83;;;;;;;8.03;95.58;101139.03;5051891;28;20104;-72
2023/04/11 06:29:42;;;;;;;8.95;2.17;;;;;;;8.10;95.81;101163.56;5051832;28;20504;-73
2023/04/11 06:32:11;;;;;;;12.07;3.03;;;;;;;8.53;94.54;101184.69;5051934;28;20070;-73
2023/04/11 06:34:37;;;;;;;15.82;3.10;;;;;;;9.36;90.69;101169.31;5051814;28;20032;-71
2023/04/11 06:37:03;;;;;;;14.48;3.42;;;;;;;10.62;84.91;101184.75;5051980;28;20029;-73
2023/04/11 06:39:29;;;;;;;11.68;2.45;;;;;;;11.69;78.98;101174.91;5051643;28;20111;-73
2023/04/11 06:41:55;;;;;;;11.38;2.53;;;;;;;12.61;73.75;101162.16;5051735;28;20363;-72
2023/04/11 06:44:20;;;;;;;11.30;3.55;;;;;;;13.26;68.89;101176.81;5051563;28;20112;-74
2023/04/11 06:46:46;;;;;;;14.13;2.88;;;;;;;13.20;68.74;101180.66;5051715;28;20033;-75
2023/04/11 06:49:11;;;;;;;11.40;2.80;;;;;;;13.35;67.00;101158.84;5051684;28;20017;-78
2023/04/11 06:51:36;;;;;;;14.90;3.08;;;;;;;13.56;64.53;101159.09;5051684;28;20028;-75
2023/04/11 06:54:02;;;;;;;17.27;3.60;;;;;;;13.70;63.74;101168.53;5051571;28;20470;-73
2023/04/11 06:56:28;;;;;;;12.73;2.28;;;;;;;13.96;62.73;101148.50;5051508;28;20040;-74
2023/04/11 06:58:56;;;;;;;14.05;2.78;;;;;;;14.39;61.65;101179.16;5055106;28;20025;-77
2023/04/11 07:01:24;;;;;;;12.65;2.42;;;;;;;14.26;60.55;101168.84;5052539;28;20168;-72
2023/04/11 07:03:52;;;;;;;13.35;2.70;;;;;;;14.54;60.36;101175.44;5052063;28;20024;-75
2023/04/11 07:06:18;;;;;;;10.35;2.53;;;;;;;14.34;58.34;101176.88;5058072;28;20037;-78
2023/04/11 07:08:44;;;;;;;10.55;2.38;;;;;;;13.22;61.84;101183.13;5052758;28;20029;-76
2023/04/11 07:11:10;;;;;;;10.98;2.65;;;;;;;12.20;66.69;101201.94;5047030;28;20028;-75
2023/04/11 07:13:35;;;;;;;12.98;2.35;;;;;;;11.62;69.95;101196.94;5055242;28;20470;-73
2023/04/11 07:16:00;;;;;;;13.30;2.63;;;;;;;11.18;71.70;101203.84;5055523;28;20040;-72
2023/04/11 07:18:26;;;;;;;9.10;2.78;;;;;;;10.91;73.58;101213.22;5055054;28;20036;-75
2023/04/11 07:20:51;;;;;;;9.50;2.38;;;;;;;10.70;74.74;101186.88;5055021;28;20031;-74
2023/04/11 07:23:17;;;;;;;13.73;2.40;;;;;;;10.77;75.43;101219.19;5054837;28;20029;-74
2023/04/11 07:25:43;;;;;;;16.48;3.15;;;;;;;10.46;73.60;101199.47;5054701;28;20027;-73
2023/04/11 07:28:10;;;;;;;9.15;2.33;;;;;;;10.61;75.96;101216.66;5054679;28;20041;-75
2023/04/11 07:30:36;;;;;;;11.07;2.28;;;;;;;10.63;76.10;101209.66;5054708;28;20389;-74
2023/04/11 07:33:02;;;;;;;10.20;2.53;;;;;;;10.69;74.74;101203.31;5054724;28;20029;-74
2023/04/11 07:35:27;;;;;;;12.45;2.75;;;;;;;10.56;74.99;101202.34;5054658;28;20417;-75
2023/04/11 07:37:53;;;;;;;13.30;3.63;;;;;;;10.50;75.35;101213.84;5052810;28;20029;-73
2023/04/11 07:40:19;;;;;;;8.98;2.38;;;;;;;10.56;75.05;101234.16;5054644;28;20097;-79
2023/04/11 07:42:45;;;;;;;14.48;2.70;;;;;;;10.49;75.28;101227.69;5070237;28;20029;-75
2023/04/11 07:45:10;;;;;;;12.20;2.28;;;;;;;10.52;76.57;101224.94;5054222;28;20029;-73
2023/04/11 07:47:36;;;;;;;13.63;2.63;;;;;;;10.59;75.43;101220.25;5053885;28;20132;-79
2023/04/11 07:50:02;;;;;;;14.10;3.03;;;;;;;10.48;75.16;101217.44;5055070;28;20104;-75
2023/04/11 07:52:27;;;;;;;11.73;2.60;;;;;;;10.40;74.04;101227.34;5054419;28;20067;-78
2023/04/11 07:54:53;;;;;;;11.25;2.85;;;;;;;10.31;76.27;101242.44;5054256;28;20373;-74
2023/04/11 07:57:18;;;;;;;12.88;2.72;;;;;;;10.20;75.37;101223.25;5069317;28;20463;-74
2023/04/11 07:59:45;;;;;;;14.63;2.78;;;;;;;10.33;74.84;101227.72;5053062;28;20037;-74
2023/04/11 08:02:10;;;;;;;11.20;2.53;;;;;;;10.38;74.23;101235.19;5069239;28;20029;-73
2023/04/11 08:04:36;;;;;;;11.15;2.67;;;;;;;10.43;74.35;101242.69;5053910;28;20028;-79
2023/04/11 08:07:02;;;;;;;11.70;2.30;;;;;;;10.44;74.48;101232.28;5054076;28;20024;-74
2023/04/11 08:09:28;;;;;;;15.85;3.40;;;;;;;10.35;72.38;101258.59;5052876;28;20490;-78
2023/04/11 08:11:55;;;;;;;8.68;2.20;;;;;;;10.27;71.73;101263.34;5052602;28;20017;-76
2023/04/11 08:14:20;;;;;;;12.10;2.33;;;;;;;10.37;73.45;101268.84;5053896;28;20025;-74
2023/04/11 08:16:46;;;;;;;16.40;2.70;;;;;;;10.45;74.59;101264.09;5053787;28;20017;-78
2023/04/11 08:19:11;;;;;;;11.75;2.22;;;;;;;10.42;71.47;101253.91;5053763;28;20025;-77
2023/04/11 08:21:37;;;;;;;9.40;2.03;;;;;;;10.40;70.10;101261.75;5053759;28;20021;-77
2023/04/11 08:24:03;;;;;;;13.68;2.50;;;;;;;10.16;70.80;101252.75;5053593;28;20025;-74
2023/04/11 08:26:28;;;;;;;13.73;2.70;;;;;;;10.19;71.29;101275.81;5053678;28;20481;-77
2023/04/11 08:28:54;;;;;;;13.25;2.70;;;;;;;10.29;71.25;101280.41;5053564;28;20029;-75
2023/04/11 08:31:19;;;;;;;9.75;2.65;;;;;;;10.36;72.88;101290.41;5053061;28;20029;-73
2023/04/11 08:33:44;;;;;;;13.13;2.65;;;;;;;10.13;71.50;101273.53;5052980;28;20029;-78
2023/04/11 08:36:10;;;;;;;13.60;2.67;;;;;;;10.20;71.62;101296.38;5051747;28;20033;-74
2023/04/11 08:38:36;;;;;;;7.50;2.00;;;;;;;10.10;71.77;101263.41;5052952;28;20025;-73
2023/04/11 08:41:01;;;;;;;11.15;2.35;;;;;;;10.40;70.91;101294.47;5052768;28;20379;-74
2023/04/11 08:43:27;;;;;;;10.60;2.00;;;;;;;10.34;70.04;101286.19;5052874;28;20025;-73
2023/04/11 08:45:52;;;;;;;11.95;2.80;;;;;;;10.07;69.77;101244.59;5052625;28;20091;-73
2023/04/11 08:48:24;;;;;;;13.00;3.05;;;;;;;10.49;72.40;101301.72;5052563;28;20491;-74
2023/04/11 08:50:49;;;;;;;11.52;2.33;;;;;;;10.51;70.01;101286.97;5052546;28;20033;-75
2023/04/11 08:53:15;;;;;;;10.57;2.20;;;;;;;10.49;71.28;101281.91;5052981;28;20120;-74
2023/04/11 08:55:46;;;;;;;15.10;2.58;;;;;;;10.48;69.32;101287.97;5052499;28;20043;-74
2023/04/11 08:58:12;;;;;;;10.60;2.60;;;;;;;10.35;69.30;101266.34;5052256;28;20067;-73
2023/04/11 09:00:37;;;;;;;12.00;2.08;;;;;;;10.52;69.42;101283.47;5052423;28;20349;-73
2023/04/11 09:03:05;;;;;;;12.52;2.47;;;;;;;10.61;69.55;101288.97;5052552;28;20086;-72
2023/04/11 09:05:37;;;;;;;10.23;2.10;;;;;;;10.75;68.05;101292.53;5053148;28;20432;-74
2023/04/11 09:08:07;;;;;;;12.13;2.15;;;;;;;10.93;66.13;101285.50;5053115;28;20029;-73
2023/04/11 09:10:34;;;;;;;9.13;1.88;;;;;;;10.84;65.32;101256.69;5052747;28;20462;-72
2023/04/11 09:13:01;;;;;;;7.13;1.88;;;;;;;11.16;63.74;101290.19;5053128;28;20051;-75
2023/04/11 09:15:29;;;;;;;10.85;2.38;;;;;;;11.30;64.24;101291.94;5051804;28;20029;-76
2023/04/11 09:17:55;;;;;;;10.57;2.63;;;;;;;11.44;61.93;101285.06;5052884;28;20029;-74
2023/04/11 09:20:26;;;;;;;13.13;2.33;;;;;;;11.42;60.38;101276.56;5052632;28;20035;-74
2023/04/11 09:22:53;;;;;;;11.65;2.05;;;;;;;11.55;62.79;101283.59;5052874;28;20535;-74
2023/04/11 09:25:21;;;;;;;6.07;1.77;;;;;;;11.43;60.55;101298.91;5052522;28;20029;-72
2023/04/11 09:27:47;;;;;;;10.30;2.03;;;;;;;11.28;58.72;101299.78;5052408;28;20506;-73
2023/04/11 09:30:18;;;;;;;7.03;1.70;;;;;;;10.93;56.88;101290.69;5052466;28;20052;-72
2023/04/11 09:32:45;;;;;;;11.30;1.90;;;;;;;11.10;58.99;101303.44;5052831;28;20060;-72
2023/04/11 09:35:11;;;;;;;7.43;1.50;;;;;;;11.43;60.49;101318.78;5052653;28;20382;-73
2023/04/11 09:37:42;;;;;;;7.45;1.75;;;;;;;11.44;58.53;101291.97;5067783;28;20041;-74
2023/04/11 09:40:08;;;;;;;7.53;1.55;;;;;;;11.66;58.62;101301.88;5052718;28;20024;-72
2023/04/11 09:42:34;;;;;;;9.63;1.90;;;;;;;11.94;58.29;101298.50;5052381;28;20071;-74
2023/04/11 09:44:59;;;;;;;8.60;1.60;;;;;;;11.95;57.81;101306.16;5052324;28;20497;-77
2023/04/11 09:47:31;;;;;;;9.48;2.08;;;;;;;12.11;58.79;101324.19;5052543;28;20029;-74
2023/04/11 09:49:57;;;;;;;;;;;;;;;12.29;56.49;101314.41;5052799;28;20029;-76
2023/04/11 09:52:23;;;;;;;6.97;2.08;;;;;;;12.39;57.70;101309.50;5052363;28;19940;-74
2023/04/11 09:54:51;;;;;;;8.15;1.52;;;;;;;12.48;57.09;101301.16;5052458;28;20032;-74
2023/04/11 09:57:21;;;;;;;8.60;2.20;;;;;;;12.73;56.46;101319.41;5051801;28;20057;-76
2023/04/11 09:59:54;;;;;;;7.85;1.67;;;;;;;12.72;56.46;101303.94;5052107;28;20103;-74
2023/04/11 10:02:19;;;;;;;12.07;2.10;;;;;;;12.52;56.60;101289.69;5052009;28;20029;-76
2023/04/11 10:04:46;;;;;;;9.88;1.88;;;;;;;12.16;57.88;101314.34;5067663;28;20040;-76
2023/04/11 10:07:13;;;;;;;9.70;2.17;;;;;;;11.72;59.92;101309.28;5052082;28;20426;-75
2023/04/11 10:09:42;;;;;;;12.68;2.45;;;;;;;11.50;59.79;101301.94;5051962;28;20020;-76
2023/04/11 10:12:07;;;;;;;11.90;2.33;;;;;;;11.60;60.62;101321.19;5051962;28;20086;-75
2023/04/11 10:14:40;;;;;;;7.68;1.73;;;;;;;11.37;59.94;101319.13;5052109;28;20021;-74
2023/04/11 10:17:20;;;;;;;10.27;2.00;;;;;;;11.18;61.76;101314.19;5052473;28;20483;-77
2023/04/11 10:19:47;;;;;;;12.00;2.28;;;;;;;11.06;63.45;101323.47;5067466;28;20033;-77
2023/04/11 10:22:46;;;;;;;9.25;2.10;;;;;;;11.10;65.07;101304.28;5052127;28;20032;-74
2023/04/11 10:25:23;;;;;;;10.95;2.38;;;;;;;11.27;62.71;101329.16;5051658;28;20116;-73
2023/04/11 10:27:59;;;;;;;9.23;1.65;;;;;;;11.08;60.78;101324.22;5051869;28;20033;-74
2023/04/11 10:30:39;;;;;;;8.07;2.00;;;;;;;10.95;61.04;101322.41;5052105;28;20505;-74
2023/04/11 10:33:12;;;;;;;9.10;2.17;;;;;;;10.73;60.73;101321.03;5054533;28;20047;-73
2023/04/11 10:36:16;;;;;;;10.13;2.25;;;;;;;10.87;62.94;101325.44;5055599;28;20025;-74
2023/04/11 10:38:47;;;;;;;6.10;1.90;;;;;;;11.05;59.34;101337.31;5033047;28;20033;-74
2023/04/11 10:41:21;;;;;;;13.73;2.38;;;;;;;11.12;60.65;101332.63;5032994;28;20486;-73
2023/04/11 10:43:48;;;;;;;8.73;2.22;;;;;;;11.15;60.38;101328.13;5033421;28;20137;-72
2023/04/11 10:46:19;;;;;;;9.13;1.98;;;;;;;11.36;60.70;101328.63;5033509;28;20360;-73
2023/04/11 10:48:57;;;;;;;11.23;2.00;;;;;;;11.46;61.97;101323.75;5033059;28;20049;-74
2023/04/11 10:51:26;;;;;;;10.95;2.15;;;;;;;11.43;59.98;101321.34;5033645;28;20033;-75
2023/04/11 10:53:52;;;;;;;11.35;2.00;;;;;;;11.54;59.34;101323.31;5032595;28;20227;-74
2023/04/11 10:56:39;;;;;;;10.18;2.22;;;;;;;11.56;57.75;101336.97;5033134;28;20605;-74
2023/04/11 10:59:04;;;;;;;9.10;1.85;;;;;;;11.72;57.84;101324.81;5033375;28;20037;-73
2023/04/11 11:01:30;;;;;;;10.63;1.88;;;;;;;11.85;57.49;101314.56;5033517;28;20037;-73
2023/04/11 11:03:55;;;;;;;9.55;1.98;;;;;;;12.00;57.05;101322.25;5033223;28;20094;-73
2023/04/11 11:06:22;;;;;;;10.18;1.88;;;;;;;12.10;56.33;101313.94;5032914;28;20030;-70
2023/04/11 11:08:47;;;;;;;11.52;1.63;;;;;;;12.13;52.27;101324.09;5038171;28;20041;-72
2023/04/11 11:11:15;;;;;;;8.80;1.52;;;;;;;12.22;53.07;101326.94;5054786;28;20024;-73
2023/04/11 11:13:50;;;;;;;7.60;1.65;;;;;;;12.33;50.59;101323.69;5054975;28;20090;-73
2023/04/11 11:16:21;;;;;;;9.23;1.80;;;;;;;12.55;52.70;101320.56;5055101;28;20032;-76
2023/04/11 11:18:54;;;;;;;5.90;1.65;;;;;;;12.52;51.28;101323.34;5054992;28;20025;-76